createdAt,value
2022-09-16T00:00:44.576Z,100.00
2022-09-16T00:03:12.733Z,100.00
2022-09-16T00:05:43.528Z,100.00
2022-09-16T00:08:11.477Z,100.00
2022-09-16T00:10:39.473Z,100.00
2022-09-16T00:13:09.264Z,100.00
2022-09-16T00:15:37.401Z,100.00
2022-09-16T00:18:05.473Z,100.00
2022-09-16T00:20:33.234Z,100.00
2022-09-16T00:23:01.050Z,100.00
2022-09-16T00:25:29.192Z,100.00
2022-09-16T00:27:56.944Z,100.00
2022-09-16T00:30:26.031Z,100.00
2022-09-16T00:32:53.888Z,100.00
2022-09-16T00:35:22.867Z,100.00
2022-09-16T00:37:51.218Z,100.00
2022-09-16T00:40:19.235Z,100.00
2022-09-16T00:42:46.976Z,100.00
2022-09-16T00:45:19.819Z,100.00
2022-09-16T00:47:52.662Z,100.00
2022-09-16T00:50:26.766Z,100.00
2022-09-16T00:52:55.672Z,100.00
2022-09-16T00:55:27.374Z,100.00
2022-09-16T00:57:57.903Z,100.00
2022-09-16T01:00:25.542Z,100.00
2022-09-16T01:02:54.744Z,100.00
2022-09-16T01:05:25.839Z,100.00
2022-09-16T01:07:55.343Z,100.00
2022-09-16T01:10:27.534Z,100.00
2022-09-16T01:12:57.913Z,100.00
2022-09-16T01:15:32.445Z,100.00
2022-09-16T01:18:12.619Z,100.00
2022-09-16T01:21:04.246Z,100.00
2022-09-16T01:24:05.867Z,100.00
2022-09-16T01:27:02.141Z,100.00
2022-09-16T01:30:08.581Z,100.00
2022-09-16T01:32:45.132Z,100.00
2022-09-16T01:35:22.855Z,100.00
2022-09-16T01:38:05.184Z,100.00
2022-09-16T01:40:40.338Z,100.00
2022-09-16T01:43:17.650Z,100.00
2022-09-16T01:45:55.034Z,100.00
2022-09-16T01:48:30.948Z,100.00
2022-09-16T01:51:06.085Z,100.00
2022-09-16T01:53:38.690Z,100.00
2022-09-16T01:56:13.734Z,100.00
2022-09-16T01:58:48.370Z,100.00
2022-09-16T02:01:23.446Z,100.00
2022-09-16T02:03:59.631Z,100.00
2022-09-16T02:06:31.280Z,100.00
2022-09-16T02:09:02.277Z,100.00
2022-09-16T02:11:30.419Z,100.00
2022-09-16T02:14:04.746Z,100.00
2022-09-16T02:16:37.078Z,100.00
2022-09-16T02:19:13.431Z,100.00
2022-09-16T02:21:45.801Z,100.00
2022-09-16T02:24:18.175Z,100.00
2022-09-16T02:26:49.800Z,100.00
2022-09-16T02:29:22.181Z,100.00
2022-09-16T02:31:55.743Z,100.00
2022-09-16T02:34:29.734Z,100.00
2022-09-16T02:37:02.395Z,100.00
2022-09-16T02:39:33.419Z,100.00
2022-09-16T02:42:02.370Z,100.00
2022-09-16T02:44:30.796Z,100.00
2022-09-16T02:47:02.538Z,100.00
2022-09-16T02:49:42.170Z,100.00
2022-09-16T02:52:17.287Z,100.00
2022-09-16T02:54:51.243Z,100.00
2022-09-16T02:57:19.125Z,100.00
2022-09-16T02:59:47.030Z,100.00
2022-09-16T03:02:15.157Z,100.00
2022-09-16T03:04:44.305Z,100.00
2022-09-16T03:07:13.699Z,100.00
2022-09-16T03:09:44.868Z,100.00
2022-09-16T03:12:22.537Z,100.00
2022-09-16T03:15:29.215Z,100.00
2022-09-16T03:18:14.194Z,100.00
2022-09-16T03:20:50.984Z,100.00
2022-09-16T03:23:28.719Z,100.00
2022-09-16T03:26:01.273Z,100.00
2022-09-16T03:28:38.797Z,99.21
2022-09-16T03:31:09.125Z,99.15
2022-09-16T03:33:43.815Z,99.05
2022-09-16T03:36:17.440Z,98.63
2022-09-16T03:38:46.260Z,98.07
2022-09-16T03:41:14.980Z,98.19
2022-09-16T03:43:53.821Z,97.18
2022-09-16T03:46:21.886Z,97.09
2022-09-16T03:48:49.844Z,97.34
2022-09-16T03:51:19.174Z,96.40
2022-09-16T03:53:46.992Z,96.65
2022-09-16T03:56:15.100Z,97.62
2022-09-16T03:58:42.864Z,97.17
2022-09-16T04:01:10.675Z,97.32
2022-09-16T04:03:38.489Z,98.16
2022-09-16T04:06:06.752Z,98.46
2022-09-16T04:08:36.086Z,98.69
2022-09-16T04:11:06.335Z,99.87
2022-09-16T04:13:35.558Z,99.15
2022-09-16T04:16:04.979Z,98.96
2022-09-16T04:18:33.840Z,99.09
2022-09-16T04:21:03.031Z,99.17
2022-09-16T04:23:32.022Z,98.79
2022-09-16T04:26:03.315Z,98.14
2022-09-16T04:28:32.748Z,98.03
2022-09-16T04:31:02.930Z,98.87
2022-09-16T04:33:31.405Z,98.56
2022-09-16T04:36:06.292Z,98.88
2022-09-16T04:38:34.050Z,98.43
2022-09-16T04:41:04.625Z,99.09
2022-09-16T04:43:32.250Z,99.06
2022-09-16T04:46:00.585Z,98.99
2022-09-16T04:48:29.182Z,99.11
2022-09-16T04:51:03.940Z,99.05
2022-09-16T04:53:31.900Z,99.01
2022-09-16T04:56:06.532Z,99.45
2022-09-16T04:58:35.056Z,99.36
2022-09-16T05:01:07.970Z,99.06
2022-09-16T05:03:35.906Z,99.84
2022-09-16T05:06:09.503Z,99.35
2022-09-16T05:08:37.788Z,99.95
2022-09-16T05:11:09.140Z,100.00
2022-09-16T05:13:37.482Z,100.00
2022-09-16T05:16:07.515Z,100.00
2022-09-16T05:18:36.469Z,99.74
2022-09-16T05:21:07.441Z,100.00
2022-09-16T05:23:36.104Z,100.00
2022-09-16T05:26:05.210Z,100.00
2022-09-16T05:28:34.875Z,99.95
2022-09-16T05:31:10.559Z,99.00
2022-09-16T05:33:38.900Z,98.80
2022-09-16T05:36:08.646Z,99.14
2022-09-16T05:38:36.525Z,99.07
2022-09-16T05:41:05.727Z,98.20
2022-09-16T05:43:36.064Z,98.19
2022-09-16T05:46:04.737Z,97.65
2022-09-16T05:48:33.497Z,97.35
2022-09-16T05:51:02.827Z,97.91
2022-09-16T05:53:32.167Z,96.90
2022-09-16T05:56:01.601Z,96.25
2022-09-16T05:58:31.536Z,97.44
2022-09-16T06:01:01.941Z,97.85
2022-09-16T06:03:30.521Z,97.74
2022-09-16T06:06:02.188Z,98.00
2022-09-16T06:08:31.277Z,98.51
2022-09-16T06:11:02.133Z,98.28
2022-09-16T06:13:29.934Z,98.89
2022-09-16T06:15:59.130Z,97.80
2022-09-16T06:18:30.571Z,98.40
2022-09-16T06:20:59.508Z,98.70
2022-09-16T06:23:27.235Z,97.65
2022-09-16T06:26:01.202Z,97.30
2022-09-16T06:28:28.992Z,96.26
2022-09-16T06:31:05.816Z,96.62
2022-09-16T06:33:36.961Z,97.27
2022-09-16T06:36:06.168Z,95.55
2022-09-16T06:38:34.022Z,96.46
2022-09-16T06:41:02.661Z,96.67
2022-09-16T06:43:30.924Z,95.87
2022-09-16T06:46:00.427Z,95.25
2022-09-16T06:48:28.513Z,96.14
2022-09-16T06:51:01.891Z,96.42
2022-09-16T06:53:30.041Z,97.00
2022-09-16T06:56:01.359Z,95.74
2022-09-16T06:58:30.241Z,96.51
2022-09-16T07:00:58.118Z,95.87
2022-09-16T07:03:26.045Z,96.39
2022-09-16T07:05:58.541Z,96.47
2022-09-16T07:08:29.780Z,96.22
2022-09-16T07:10:59.104Z,96.61
2022-09-16T07:13:27.347Z,96.05
2022-09-16T07:16:12.380Z,95.63
2022-09-16T07:18:40.879Z,95.31
2022-09-16T07:21:15.097Z,93.18
2022-09-16T07:23:45.187Z,92.69
2022-09-16T07:26:15.568Z,94.15
2022-09-16T07:28:44.150Z,93.18
2022-09-16T07:31:13.748Z,92.29
2022-09-16T07:33:44.582Z,90.85
2022-09-16T07:36:14.879Z,90.52
2022-09-16T07:38:44.303Z,90.49
2022-09-16T07:41:14.029Z,89.34
2022-09-16T07:43:43.374Z,87.94
2022-09-16T07:46:13.208Z,87.76
2022-09-16T07:48:41.923Z,84.62
2022-09-16T07:51:11.995Z,85.34
2022-09-16T07:53:40.531Z,85.25
2022-09-16T07:56:13.068Z,84.52
2022-09-16T07:58:41.338Z,84.06
2022-09-16T08:01:09.896Z,84.52
2022-09-16T08:03:39.893Z,84.26
2022-09-16T08:06:10.765Z,83.41
2022-09-16T08:08:38.505Z,82.07
2022-09-16T08:11:07.657Z,81.50
2022-09-16T08:13:38.206Z,83.20
2022-09-16T08:16:07.303Z,81.32
2022-09-16T08:18:35.689Z,83.19
2022-09-16T08:21:08.043Z,81.08
2022-09-16T08:23:36.294Z,81.25
2022-09-16T08:26:05.676Z,81.36
2022-09-16T08:28:45.123Z,81.88
2022-09-16T08:31:21.659Z,79.44
2022-09-16T08:33:49.687Z,79.56
2022-09-16T08:36:19.841Z,80.55
2022-09-16T08:38:49.729Z,80.03
2022-09-16T08:41:43.930Z,79.57
2022-09-16T08:44:22.348Z,80.05
2022-09-16T08:46:55.354Z,77.62
2022-09-16T08:49:33.881Z,77.78
2022-09-16T08:52:05.996Z,78.15
2022-09-16T08:54:38.470Z,78.09
2022-09-16T08:57:12.647Z,78.39
2022-09-16T08:59:44.402Z,77.78
2022-09-16T09:02:28.377Z,78.93
2022-09-16T09:04:56.611Z,76.78
2022-09-16T09:07:33.265Z,74.48
2022-09-16T09:10:12.012Z,73.39
2022-09-16T09:12:45.146Z,73.68
2022-09-16T09:15:32.286Z,74.92
2022-09-16T09:18:16.120Z,73.05
2022-09-16T09:20:50.578Z,73.60
2022-09-16T09:23:32.371Z,73.83
2022-09-16T09:26:09.886Z,74.49
2022-09-16T09:29:07.629Z,73.95
2022-09-16T09:31:44.907Z,74.70
2022-09-16T09:34:34.919Z,76.01
2022-09-16T09:37:20.142Z,75.75
2022-09-16T09:39:59.503Z,76.71
2022-09-16T09:42:30.855Z,77.74
2022-09-16T09:45:04.687Z,78.72
2022-09-16T09:47:37.460Z,79.61
2022-09-16T09:50:16.406Z,79.92
2022-09-16T09:52:51.064Z,79.13
2022-09-16T09:55:21.651Z,78.53
2022-09-16T09:57:58.020Z,78.45
2022-09-16T10:00:25.833Z,79.07
2022-09-16T10:02:53.743Z,78.31
2022-09-16T10:05:25.933Z,78.61
2022-09-16T10:07:56.725Z,79.30
2022-09-16T10:10:27.390Z,81.44
2022-09-16T10:12:55.230Z,81.72
2022-09-16T10:15:25.199Z,80.49
2022-09-16T10:17:54.312Z,82.08
2022-09-16T10:20:34.875Z,82.32
2022-09-16T10:23:03.994Z,81.99
2022-09-16T10:25:33.619Z,81.97
2022-09-16T10:28:03.379Z,79.27
2022-09-16T10:30:34.266Z,78.73
2022-09-16T10:33:04.953Z,77.90
2022-09-16T10:35:36.460Z,76.74
2022-09-16T10:38:16.738Z,75.38
2022-09-16T10:40:53.018Z,73.99
2022-09-16T10:43:21.450Z,73.92
2022-09-16T10:45:51.655Z,73.48
2022-09-16T10:48:21.900Z,72.18
2022-09-16T10:50:58.992Z,72.52
2022-09-16T10:53:39.126Z,69.36
2022-09-16T10:56:08.526Z,71.39
2022-09-16T10:58:36.354Z,70.16
2022-09-16T11:01:19.149Z,69.74
2022-09-16T11:04:31.934Z,72.51
2022-09-16T11:07:14.288Z,70.28
2022-09-16T11:09:50.115Z,71.26
2022-09-16T11:12:52.717Z,70.84
2022-09-16T11:15:33.141Z,72.25
2022-09-16T11:18:16.888Z,70.34
2022-09-16T11:21:08.876Z,70.32
2022-09-16T11:23:55.084Z,69.77
2022-09-16T11:26:30.903Z,69.06
2022-09-16T11:29:13.738Z,69.35
2022-09-16T11:31:49.101Z,68.29
2022-09-16T11:34:28.874Z,68.41
2022-09-16T11:37:07.135Z,69.33
2022-09-16T11:40:06.175Z,67.62
2022-09-16T11:42:36.376Z,66.31
2022-09-16T11:45:22.700Z,64.75
2022-09-16T11:48:01.372Z,65.16
2022-09-16T11:50:41.457Z,62.89
2022-09-16T11:53:39.275Z,62.89
2022-09-16T11:56:15.370Z,60.79
2022-09-16T11:58:48.978Z,60.67
2022-09-16T12:01:27.202Z,62.90
2022-09-16T12:04:00.644Z,61.01
2022-09-16T12:06:32.297Z,60.73
2022-09-16T12:09:05.461Z,59.98
2022-09-16T12:11:43.892Z,62.15
2022-09-16T12:14:16.783Z,60.97
2022-09-16T12:16:48.219Z,62.15
2022-09-16T12:19:22.624Z,63.85
2022-09-16T12:21:57.915Z,64.46
2022-09-16T12:24:34.050Z,64.56
2022-09-16T12:27:10.290Z,65.15
2022-09-16T12:29:45.287Z,65.98
2022-09-16T12:32:19.242Z,64.83
2022-09-16T12:34:52.330Z,65.99
2022-09-16T12:37:33.939Z,64.21
2022-09-16T12:40:02.237Z,63.04
2022-09-16T12:42:58.142Z,61.86
2022-09-16T12:46:04.458Z,62.81
2022-09-16T12:49:20.250Z,63.45
2022-09-16T12:52:13.863Z,61.19
2022-09-16T12:55:08.826Z,59.27
2022-09-16T12:57:53.600Z,57.94
2022-09-16T13:00:23.096Z,57.06
2022-09-16T13:02:54.666Z,56.71
2022-09-16T13:05:28.277Z,57.75
2022-09-16T13:08:01.780Z,58.20
2022-09-16T13:10:54.941Z,55.81
2022-09-16T13:13:31.004Z,57.08
2022-09-16T13:16:00.828Z,57.31
2022-09-16T13:18:41.732Z,56.85
2022-09-16T13:21:22.513Z,57.57
2022-09-16T13:24:00.483Z,56.50
2022-09-16T13:26:39.893Z,57.48
2022-09-16T13:29:28.547Z,57.25
2022-09-16T13:34:30.113Z,57.85
2022-09-16T13:36:58.846Z,58.71
2022-09-16T13:39:31.404Z,56.73
2022-09-16T13:42:11.363Z,57.46
2022-09-16T13:44:44.028Z,57.31
2022-09-16T13:47:29.524Z,56.75
2022-09-16T13:50:01.175Z,56.51
2022-09-16T13:52:31.669Z,54.90
2022-09-16T13:55:11.386Z,54.93
2022-09-16T13:57:52.879Z,55.78
2022-09-16T14:00:24.376Z,54.46
2022-09-16T14:03:35.814Z,55.19
2022-09-16T14:06:20.001Z,55.15
2022-09-16T14:08:59.194Z,55.56
2022-09-16T14:11:36.058Z,53.89
2022-09-16T14:14:08.322Z,53.48
2022-09-16T14:16:42.727Z,54.23
2022-09-16T14:19:24.361Z,54.91
2022-09-16T14:22:06.964Z,56.09
2022-09-16T14:24:36.817Z,56.99
2022-09-16T14:27:05.535Z,56.20
2022-09-16T14:29:33.738Z,57.63
2022-09-16T14:32:04.921Z,60.48
2022-09-16T14:34:36.319Z,60.34
2022-09-16T14:37:06.263Z,60.73
2022-09-16T14:39:35.676Z,61.50
2022-09-16T14:42:07.237Z,62.71
2022-09-16T14:44:37.943Z,64.98
2022-09-16T14:47:29.471Z,62.93
2022-09-16T14:50:09.233Z,65.28
2022-09-16T14:52:37.120Z,65.43
2022-09-16T14:55:09.704Z,66.46
2022-09-16T14:57:37.988Z,67.66
2022-09-16T15:00:11.663Z,67.21
2022-09-16T15:02:45.022Z,67.98
2022-09-16T15:05:21.332Z,67.97
2022-09-16T15:08:09.951Z,67.17
2022-09-16T15:10:51.653Z,64.91
2022-09-16T15:13:22.274Z,65.61
2022-09-16T15:15:52.986Z,65.20
2022-09-16T15:18:26.984Z,64.53
2022-09-16T15:21:02.384Z,63.66
2022-09-16T15:23:31.838Z,62.78
2022-09-16T15:26:13.460Z,61.83
2022-09-16T15:28:52.430Z,61.58
2022-09-16T15:31:29.014Z,62.98
2022-09-16T15:34:00.576Z,63.07
2022-09-16T15:36:38.647Z,63.72
2022-09-16T15:39:07.862Z,63.85
2022-09-16T15:41:35.720Z,62.55
2022-09-16T15:44:10.163Z,63.96
2022-09-16T15:46:38.315Z,65.45
2022-09-16T15:49:14.593Z,65.64
2022-09-16T15:51:47.875Z,66.82
2022-09-16T15:54:22.000Z,67.06
2022-09-16T15:56:57.920Z,67.44
2022-09-16T15:59:32.322Z,68.37
2022-09-16T16:02:05.615Z,69.36
2022-09-16T16:04:35.911Z,68.96
2022-09-16T16:07:05.615Z,69.47
2022-09-16T16:09:39.998Z,69.12
2022-09-16T16:12:10.765Z,68.44
2022-09-16T16:14:40.268Z,68.15
2022-09-16T16:17:14.424Z,68.41
2022-09-16T16:19:46.511Z,69.36
2022-09-16T16:22:15.946Z,70.15
2022-09-16T16:24:43.821Z,68.98
2022-09-16T16:27:11.699Z,69.57
2022-09-16T16:29:39.604Z,69.63
2022-09-16T16:32:09.927Z,69.61
2022-09-16T16:34:40.212Z,69.67
2022-09-16T16:37:23.182Z,70.46
2022-09-16T16:39:58.792Z,70.61
2022-09-16T16:42:28.678Z,71.60
2022-09-16T16:44:57.153Z,71.57
2022-09-16T16:47:25.260Z,71.78
2022-09-16T16:49:53.200Z,71.68
2022-09-16T16:52:22.492Z,72.40
2022-09-16T16:54:50.394Z,72.54
2022-09-16T16:57:18.215Z,72.22
2022-09-16T16:59:46.125Z,72.09
2022-09-16T17:02:14.995Z,72.98
2022-09-16T17:04:43.051Z,73.09
2022-09-16T17:07:27.690Z,73.35
2022-09-16T17:09:58.634Z,73.63
2022-09-16T17:12:26.758Z,73.37
2022-09-16T17:14:54.730Z,73.91
2022-09-16T17:17:25.278Z,74.55
2022-09-16T17:19:55.689Z,75.11
2022-09-16T17:22:23.496Z,76.03
2022-09-16T17:24:51.341Z,76.30
2022-09-16T17:27:21.848Z,75.67
2022-09-16T17:29:49.436Z,75.73
2022-09-16T17:32:17.304Z,76.37
2022-09-16T17:34:45.245Z,76.36
2022-09-16T17:37:14.509Z,76.97
2022-09-16T17:39:42.480Z,77.55
2022-09-16T17:42:10.286Z,78.45
2022-09-16T17:44:39.559Z,79.13
2022-09-16T17:47:07.497Z,78.71
2022-09-16T17:49:35.280Z,77.15
2022-09-16T17:52:03.514Z,77.76
2022-09-16T17:54:31.388Z,78.67
2022-09-16T17:56:59.158Z,79.14
2022-09-16T17:59:27.100Z,78.60
2022-09-16T18:01:56.922Z,79.75
2022-09-16T18:04:24.945Z,80.32
2022-09-16T18:06:52.714Z,81.00
2022-09-16T18:09:20.667Z,81.71
2022-09-16T18:11:48.761Z,81.14
2022-09-16T18:14:21.290Z,81.84
2022-09-16T18:16:51.148Z,82.14
2022-09-16T18:19:20.687Z,82.67
2022-09-16T18:21:48.492Z,83.16
2022-09-16T18:24:16.349Z,84.14
2022-09-16T18:26:44.643Z,87.44
2022-09-16T18:29:14.190Z,87.77
2022-09-16T18:31:43.684Z,89.13
2022-09-16T18:34:12.429Z,90.02
2022-09-16T18:36:41.961Z,91.50
2022-09-16T18:39:13.241Z,90.97
2022-09-16T18:41:42.641Z,91.56
2022-09-16T18:44:14.414Z,91.93
2022-09-16T18:46:42.345Z,91.86
2022-09-16T18:49:12.482Z,89.96
2022-09-16T18:51:47.283Z,91.70
2022-09-16T18:54:24.379Z,91.74
2022-09-16T18:56:53.021Z,91.92
2022-09-16T18:59:24.250Z,90.05
2022-09-16T19:01:54.160Z,90.22
2022-09-16T19:04:24.475Z,91.22
2022-09-16T19:06:56.972Z,89.23
2022-09-16T19:09:25.448Z,90.24
2022-09-16T19:11:54.600Z,90.20
2022-09-16T19:14:24.816Z,90.70
2022-09-16T19:16:53.177Z,89.19
2022-09-16T19:19:23.387Z,90.14
2022-09-16T19:21:51.450Z,91.19
2022-09-16T19:24:22.795Z,90.63
2022-09-16T19:26:53.648Z,91.63
2022-09-16T19:29:22.562Z,92.75
2022-09-16T19:31:52.794Z,93.83
2022-09-16T19:34:22.081Z,94.38
2022-09-16T19:36:50.850Z,95.52
2022-09-16T19:39:21.195Z,95.70
2022-09-16T19:41:49.080Z,96.49
2022-09-16T19:44:18.894Z,95.80
2022-09-16T19:46:49.123Z,96.56
2022-09-16T19:49:19.821Z,97.35
2022-09-16T19:51:48.362Z,97.78
2022-09-16T19:54:16.923Z,97.28
2022-09-16T19:56:50.331Z,97.49
2022-09-16T19:59:19.399Z,98.34
2022-09-16T20:01:47.593Z,97.80
2022-09-16T20:04:19.476Z,97.75
2022-09-16T20:06:47.547Z,96.74
2022-09-16T20:09:15.545Z,96.80
2022-09-16T20:11:45.035Z,96.97
2022-09-16T20:14:16.250Z,96.79
2022-09-16T20:16:44.761Z,97.26
2022-09-16T20:19:15.447Z,97.50
2022-09-16T20:21:44.189Z,97.70
2022-09-16T20:24:18.015Z,97.19
2022-09-16T20:26:46.000Z,98.03
2022-09-16T20:29:17.211Z,97.44
2022-09-16T20:31:45.996Z,97.80
2022-09-16T20:34:16.119Z,97.19
2022-09-16T20:36:45.884Z,96.07
2022-09-16T20:39:14.537Z,96.88
2022-09-16T20:41:43.002Z,96.99
2022-09-16T20:44:13.812Z,97.02
2022-09-16T20:46:43.053Z,96.70
2022-09-16T20:49:15.934Z,96.70
2022-09-16T20:51:44.273Z,96.23
2022-09-16T20:54:14.118Z,96.31
2022-09-16T20:56:43.341Z,95.87
2022-09-16T20:59:13.494Z,95.78
2022-09-16T21:01:43.767Z,95.96
2022-09-16T21:04:13.657Z,96.14
2022-09-16T21:06:41.852Z,96.13
2022-09-16T21:09:11.457Z,96.25
2022-09-16T21:11:43.618Z,95.77
2022-09-16T21:14:14.560Z,96.39
2022-09-16T21:16:45.364Z,95.04
2022-09-16T21:19:13.754Z,94.68
2022-09-16T21:21:44.695Z,94.02
2022-09-16T21:24:13.371Z,93.19
2022-09-16T21:26:42.024Z,93.25
2022-09-16T21:29:11.903Z,93.52
2022-09-16T21:31:41.643Z,93.33
2022-09-16T21:34:14.020Z,94.30
2022-09-16T21:36:42.066Z,96.91
2022-09-16T21:39:09.968Z,97.55
2022-09-16T21:41:38.059Z,97.92
2022-09-16T21:44:06.301Z,97.59
2022-09-16T21:46:39.630Z,97.48
2022-09-16T21:49:08.776Z,98.37
2022-09-16T21:51:38.971Z,98.72
2022-09-16T21:54:09.007Z,97.63
2022-09-16T21:56:38.363Z,98.81
2022-09-16T21:59:06.265Z,98.89
2022-09-16T22:01:35.051Z,97.98
2022-09-16T22:04:05.281Z,97.40
2022-09-16T22:06:33.969Z,98.15
2022-09-16T22:09:06.960Z,98.10
2022-09-16T22:11:36.204Z,97.54
2022-09-16T22:14:04.470Z,98.78
2022-09-16T22:16:35.434Z,99.09
2022-09-16T22:19:06.879Z,99.87
2022-09-16T22:21:36.933Z,100.00
2022-09-16T22:24:07.403Z,100.00
2022-09-16T22:26:35.647Z,99.55
2022-09-16T22:29:03.808Z,99.56
2022-09-16T22:31:34.229Z,99.54
2022-09-16T22:34:02.746Z,99.01
2022-09-16T22:36:32.786Z,99.59
2022-09-16T22:39:02.419Z,100.00
2022-09-16T22:41:32.284Z,100.00
2022-09-16T22:44:00.244Z,100.00
2022-09-16T22:46:30.877Z,100.00
2022-09-16T22:49:00.128Z,100.00
2022-09-16T22:51:29.131Z,100.00
2022-09-16T22:53:57.131Z,100.00
2022-09-16T22:56:32.096Z,100.00
2022-09-16T22:59:03.175Z,100.00
2022-09-16T23:01:33.041Z,100.00
2022-09-16T23:04:02.934Z,100.00
2022-09-16T23:06:32.242Z,100.00
2022-09-16T23:09:00.466Z,100.00
2022-09-16T23:11:30.127Z,100.00
2022-09-16T23:13:58.393Z,100.00
2022-09-16T23:16:30.139Z,100.00
2022-09-16T23:18:59.646Z,100.00
2022-09-16T23:21:27.825Z,100.00
2022-09-16T23:23:57.500Z,100.00
2022-09-16T23:26:27.595Z,100.00
2022-09-16T23:28:57.645Z,100.00
2022-09-16T23:31:29.578Z,100.00
2022-09-16T23:33:58.155Z,100.00
2022-09-16T23:36:27.363Z,100.00
2022-09-16T23:38:55.635Z,100.00
2022-09-16T23:41:27.472Z,100.00
2022-09-16T23:43:56.425Z,100.00
2022-09-16T23:46:26.694Z,100.00
2022-09-16T23:48:56.200Z,100.00
2022-09-16T23:51:28.192Z,100.00
2022-09-16T23:53:57.540Z,100.00
2022-09-16T23:56:26.071Z,100.00
2022-09-16T23:58:55.035Z,100.00
